Kezdőlap
METAR-TAF:

METAR-TAF

Repülőterek :

Changchun, Kína

földrajzi szélesség: 43-54N, földrajzi hosszúság: 125-13E, magasság: 238 m

Jelenlegi meteorológiai megfigyelések

A jelentés 52 perccel ezelõtt készült, 08:00 UTC
Nyugati szél 10 kt, délnyugati és északnyugati között változik
Hőmérséklet 23°C
Páratartalom 23%
Légköri nyomás 1001 hPa
Látótávolság 10 km, vagy több
felhőtlen 1500 m magasságban, és nincs gomolyfelhõ

METAR: ZYCC 250800Z 27005MPS 230V310 CAVOK 23/01 Q1001 NOSIG

Idő: 16:52 (08:52 UTC)

Előrejelzés

A jelentés 5 órával és 47 perccel ezelõtt készült, 03:05 UTC
Az előrejelzés 25-én 06 óra UTC és 26-én 06 óra UTC között érvényes
Nyugat-északnyugati szél 8 kt
Látótávolság: 6000 m
Szórványos felhőzet 3000 lábon

TAF: ZYCC 250305Z 2506/2606 30004MPS 6000 SCT030 TX22/2506Z TN08/2520Z

Meteorológiai megfigyelések és előrejelzések több, mint 4000 repülőtéren (METAR és TAF jelentéseket).

A térképen piros és sárga pontok jelzik az elérhető meteorológiai állomásokat.

Mozgassa az egeret a pont fölött, hogy megjelenjen az állomás neve.

Azután kattintson az időjárási megfigyelések és előrejelzések megtekintéséhez.

A térkép megváltoztatása: kattintson a fekete keresztel jelölt zöld gombra ráközelítéshez, a vonallal jelölt zöld gombra távolításhoz, vagy a zöld nyilakra a szomszédos térképek eléréséhez.


METAR-TAF: